sensor_id;sensor_type;location;lat;lon;timestamp;pressure;altitude;pressure_sealevel;temperature;humidity
68197;BME280;55019;49.382;11.358;2023-04-30T00:02:21;96901.47;;;10.10;80.13
68197;BME280;55019;49.382;11.358;2023-04-30T00:04:47;96906.34;;;10.13;80.26
68197;BME280;55019;49.382;11.358;2023-04-30T00:07:13;96901.06;;;10.22;79.80
68197;BME280;55019;49.382;11.358;2023-04-30T00:09:38;96907.66;;;10.17;80.16
68197;BME280;55019;49.382;11.358;2023-04-30T00:12:04;96905.50;;;10.12;80.71
68197;BME280;55019;49.382;11.358;2023-04-30T00:14:30;96900.59;;;10.02;81.56
68197;BME280;55019;49.382;11.358;2023-04-30T00:16:56;96900.75;;;10.00;81.28
68197;BME280;55019;49.382;11.358;2023-04-30T00:19:21;96895.38;;;9.94;82.67
68197;BME280;55019;49.382;11.358;2023-04-30T00:21:47;96903.25;;;9.92;82.12
68197;BME280;55019;49.382;11.358;2023-04-30T00:24:13;96895.75;;;9.81;81.80
68197;BME280;55019;49.382;11.358;2023-04-30T00:26:38;96902.84;;;9.79;82.22
68197;BME280;55019;49.382;11.358;2023-04-30T00:29:04;96900.53;;;9.94;81.68
68197;BME280;55019;49.382;11.358;2023-04-30T00:31:31;96903.53;;;9.89;82.09
68197;BME280;55019;49.382;11.358;2023-04-30T00:33:56;96904.25;;;9.74;82.48
68197;BME280;55019;49.382;11.358;2023-04-30T00:36:22;96898.22;;;9.65;82.42
68197;BME280;55019;49.382;11.358;2023-04-30T00:38:48;96902.88;;;9.87;82.07
68197;BME280;55019;49.382;11.358;2023-04-30T00:41:13;96902.22;;;9.85;82.71
68197;BME280;55019;49.382;11.358;2023-04-30T00:43:40;96906.06;;;9.81;82.65
68197;BME280;55019;49.382;11.358;2023-04-30T00:46:06;96907.03;;;9.80;82.19
68197;BME280;55019;49.382;11.358;2023-04-30T00:48:31;96908.59;;;9.73;83.16
68197;BME280;55019;49.382;11.358;2023-04-30T00:50:57;96910.22;;;9.74;82.99
68197;BME280;55019;49.382;11.358;2023-04-30T00:53:23;96927.00;;;9.78;83.25
68197;BME280;55019;49.382;11.358;2023-04-30T00:55:49;96924.97;;;9.64;83.35
68197;BME280;55019;49.382;11.358;2023-04-30T00:58:15;96925.41;;;9.77;82.88
68197;BME280;55019;49.382;11.358;2023-04-30T01:00:41;96923.59;;;9.70;83.11
68197;BME280;55019;49.382;11.358;2023-04-30T01:03:15;96925.41;;;9.77;82.71
68197;BME280;55019;49.382;11.358;2023-04-30T01:05:41;96928.03;;;9.85;82.83
68197;BME280;55019;49.382;11.358;2023-04-30T01:08:07;96935.47;;;9.88;82.18
68197;BME280;55019;49.382;11.358;2023-04-30T01:10:44;96933.19;;;9.85;82.40
68197;BME280;55019;49.382;11.358;2023-04-30T01:13:28;96936.63;;;9.68;83.84
68197;BME280;55019;49.382;11.358;2023-04-30T01:16:09;96933.91;;;9.70;83.33
68197;BME280;55019;49.382;11.358;2023-04-30T01:18:47;96938.97;;;9.79;82.98
68197;BME280;55019;49.382;11.358;2023-04-30T01:21:14;96933.50;;;9.82;83.07
68197;BME280;55019;49.382;11.358;2023-04-30T01:24:14;96942.50;;;9.78;83.29
68197;BME280;55019;49.382;11.358;2023-04-30T01:29:18;96935.22;;;9.56;84.01
68197;BME280;55019;49.382;11.358;2023-04-30T01:31:45;96937.50;;;9.59;83.72
68197;BME280;55019;49.382;11.358;2023-04-30T01:34:10;96939.63;;;9.64;84.00
68197;BME280;55019;49.382;11.358;2023-04-30T01:39:28;96933.91;;;9.52;84.25
68197;BME280;55019;49.382;11.358;2023-04-30T01:42:24;96937.34;;;9.61;84.36
68197;BME280;55019;49.382;11.358;2023-04-30T01:45:11;96939.63;;;9.64;83.80
68197;BME280;55019;49.382;11.358;2023-04-30T01:47:49;96946.22;;;9.58;84.20
68197;BME280;55019;49.382;11.358;2023-04-30T01:50:37;96943.25;;;9.53;84.91
68197;BME280;55019;49.382;11.358;2023-04-30T01:53:12;96938.47;;;9.41;84.43
68197;BME280;55019;49.382;11.358;2023-04-30T01:55:56;96953.28;;;9.56;84.63
68197;BME280;55019;49.382;11.358;2023-04-30T01:58:24;96958.16;;;9.59;84.95
68197;BME280;55019;49.382;11.358;2023-04-30T02:00:50;96944.22;;;9.52;84.96
68197;BME280;55019;49.382;11.358;2023-04-30T02:03:16;96954.69;;;9.68;84.27
68197;BME280;55019;49.382;11.358;2023-04-30T02:05:43;96948.50;;;9.61;84.30
68197;BME280;55019;49.382;11.358;2023-04-30T02:08:09;96956.22;;;9.61;84.40
68197;BME280;55019;49.382;11.358;2023-04-30T02:10:35;96948.31;;;9.63;84.03
68197;BME280;55019;49.382;11.358;2023-04-30T02:13:01;96957.56;;;9.65;84.44
68197;BME280;55019;49.382;11.358;2023-04-30T02:15:27;96959.19;;;9.66;84.01
68197;BME280;55019;49.382;11.358;2023-04-30T02:17:53;96959.69;;;9.70;83.91
68197;BME280;55019;49.382;11.358;2023-04-30T02:20:19;96963.22;;;9.69;84.03
68197;BME280;55019;49.382;11.358;2023-04-30T02:22:45;96972.13;;;9.74;83.70
68197;BME280;55019;49.382;11.358;2023-04-30T02:25:11;96963.16;;;9.78;83.55
68197;BME280;55019;49.382;11.358;2023-04-30T02:27:39;96972.00;;;9.58;84.02
68197;BME280;55019;49.382;11.358;2023-04-30T02:30:05;96970.88;;;9.43;85.28
68197;BME280;55019;49.382;11.358;2023-04-30T02:32:31;96969.56;;;9.57;85.28
68197;BME280;55019;49.382;11.358;2023-04-30T02:34:57;96971.34;;;9.74;83.98
68197;BME280;55019;49.382;11.358;2023-04-30T02:37:23;96965.72;;;9.78;83.68
68197;BME280;55019;49.382;11.358;2023-04-30T02:39:49;96966.38;;;9.80;83.70
68197;BME280;55019;49.382;11.358;2023-04-30T02:42:15;96971.25;;;9.83;83.97
68197;BME280;55019;49.382;11.358;2023-04-30T02:44:41;96966.84;;;9.58;84.31
68197;BME280;55019;49.382;11.358;2023-04-30T02:47:06;96969.34;;;9.50;85.66
68197;BME280;55019;49.382;11.358;2023-04-30T02:49:32;96972.22;;;9.65;85.17
68197;BME280;55019;49.382;11.358;2023-04-30T02:51:58;96976.56;;;9.64;84.93
68197;BME280;55019;49.382;11.358;2023-04-30T02:54:24;96974.72;;;9.74;84.40
68197;BME280;55019;49.382;11.358;2023-04-30T02:56:49;96970.38;;;9.75;84.03
68197;BME280;55019;49.382;11.358;2023-04-30T02:59:15;96974.22;;;9.53;83.93
68197;BME280;55019;49.382;11.358;2023-04-30T03:01:41;96969.41;;;9.41;84.99
68197;BME280;55019;49.382;11.358;2023-04-30T03:04:06;96959.53;;;9.36;85.24
68197;BME280;55019;49.382;11.358;2023-04-30T03:06:32;96969.19;;;9.34;85.41
68197;BME280;55019;49.382;11.358;2023-04-30T03:08:59;96972.13;;;9.39;86.00
68197;BME280;55019;49.382;11.358;2023-04-30T03:11:25;96970.78;;;9.35;85.93
68197;BME280;55019;49.382;11.358;2023-04-30T03:13:51;96967.94;;;9.38;85.78
68197;BME280;55019;49.382;11.358;2023-04-30T03:16:19;96977.41;;;9.20;86.63
68197;BME280;55019;49.382;11.358;2023-04-30T03:18:45;96981.69;;;9.29;86.17
68197;BME280;55019;49.382;11.358;2023-04-30T03:21:11;96978.75;;;9.24;86.22
68197;BME280;55019;49.382;11.358;2023-04-30T03:23:37;96981.03;;;9.27;86.71
68197;BME280;55019;49.382;11.358;2023-04-30T03:26:03;96987.22;;;9.34;85.91
68197;BME280;55019;49.382;11.358;2023-04-30T03:28:29;96971.69;;;9.26;85.96
68197;BME280;55019;49.382;11.358;2023-04-30T03:30:54;96979.34;;;9.18;86.19
68197;BME280;55019;49.382;11.358;2023-04-30T03:33:20;96974.41;;;9.25;86.69
68197;BME280;55019;49.382;11.358;2023-04-30T03:35:46;96967.19;;;9.28;85.96
68197;BME280;55019;49.382;11.358;2023-04-30T03:38:12;96969.66;;;9.47;85.13
68197;BME280;55019;49.382;11.358;2023-04-30T03:40:37;96970.50;;;9.38;86.38
68197;BME280;55019;49.382;11.358;2023-04-30T03:43:03;96962.41;;;9.33;85.60
68197;BME280;55019;49.382;11.358;2023-04-30T03:45:29;96964.03;;;9.34;86.18
68197;BME280;55019;49.382;11.358;2023-04-30T03:47:54;96969.09;;;9.26;85.78
68197;BME280;55019;49.382;11.358;2023-04-30T03:50:20;96967.41;;;9.17;86.56
68197;BME280;55019;49.382;11.358;2023-04-30T03:52:46;96967.22;;;9.01;86.91
68197;BME280;55019;49.382;11.358;2023-04-30T03:55:13;96968.72;;;9.21;86.38
68197;BME280;55019;49.382;11.358;2023-04-30T03:57:40;96962.81;;;9.11;86.88
68197;BME280;55019;49.382;11.358;2023-04-30T04:00:07;96967.69;;;9.14;86.73
68197;BME280;55019;49.382;11.358;2023-04-30T04:02:45;96958.81;;;8.99;87.41
68197;BME280;55019;49.382;11.358;2023-04-30T04:05:10;96963.81;;;9.01;87.71
68197;BME280;55019;49.382;11.358;2023-04-30T04:07:36;96964.81;;;9.17;87.12
68197;BME280;55019;49.382;11.358;2023-04-30T04:10:02;96962.81;;;9.11;87.21
68197;BME280;55019;49.382;11.358;2023-04-30T04:12:29;96967.97;;;9.11;86.90
68197;BME280;55019;49.382;11.358;2023-04-30T04:14:55;96971.81;;;9.07;88.13
68197;BME280;55019;49.382;11.358;2023-04-30T04:17:21;96973.03;;;9.03;87.87
68197;BME280;55019;49.382;11.358;2023-04-30T04:19:47;96974.97;;;9.01;87.56
68197;BME280;55019;49.382;11.358;2023-04-30T04:22:15;96978.63;;;8.99;87.50
68197;BME280;55019;49.382;11.358;2023-04-30T04:24:41;96982.88;;;9.17;86.88
68197;BME280;55019;49.382;11.358;2023-04-30T04:27:08;96984.78;;;9.15;86.51
68197;BME280;55019;49.382;11.358;2023-04-30T04:29:35;96982.41;;;9.04;87.78
68197;BME280;55019;49.382;11.358;2023-04-30T04:32:00;96987.19;;;9.17;86.47
68197;BME280;55019;49.382;11.358;2023-04-30T04:34:28;96981.91;;;9.18;87.59
68197;BME280;55019;49.382;11.358;2023-04-30T04:36:54;96993.31;;;9.16;86.38
68197;BME280;55019;49.382;11.358;2023-04-30T04:39:20;96991.75;;;9.05;86.70
68197;BME280;55019;49.382;11.358;2023-04-30T04:41:45;97003.63;;;9.16;87.33
68197;BME280;55019;49.382;11.358;2023-04-30T04:44:12;96989.38;;;9.39;86.00
68197;BME280;55019;49.382;11.358;2023-04-30T04:46:37;96999.53;;;9.40;85.75
68197;BME280;55019;49.382;11.358;2023-04-30T04:49:04;96996.16;;;9.40;86.24
68197;BME280;55019;49.382;11.358;2023-04-30T04:51:30;96985.78;;;9.32;85.39
68197;BME280;55019;49.382;11.358;2023-04-30T04:53:57;96989.50;;;9.37;85.69
68197;BME280;55019;49.382;11.358;2023-04-30T04:56:23;96994.16;;;9.34;85.61
68197;BME280;55019;49.382;11.358;2023-04-30T04:58:48;96997.91;;;9.39;85.31
68197;BME280;55019;49.382;11.358;2023-04-30T05:01:14;97000.13;;;9.34;85.60
68197;BME280;55019;49.382;11.358;2023-04-30T05:03:40;96995.34;;;9.39;85.75
68197;BME280;55019;49.382;11.358;2023-04-30T05:06:06;97004.03;;;9.38;86.12
68197;BME280;55019;49.382;11.358;2023-04-30T05:08:32;96999.06;;;9.54;84.92
68197;BME280;55019;49.382;11.358;2023-04-30T05:10:57;97002.97;;;9.58;85.18
68197;BME280;55019;49.382;11.358;2023-04-30T05:13:23;97010.13;;;9.82;84.42
68197;BME280;55019;49.382;11.358;2023-04-30T05:15:50;97004.22;;;9.72;84.22
68197;BME280;55019;49.382;11.358;2023-04-30T05:18:16;97006.22;;;9.95;83.15
68197;BME280;55019;49.382;11.358;2023-04-30T05:20:42;97006.28;;;9.86;82.48
68197;BME280;55019;49.382;11.358;2023-04-30T05:23:07;97012.25;;;9.86;83.03
68197;BME280;55019;49.382;11.358;2023-04-30T05:25:34;97012.03;;;10.14;81.95
68197;BME280;55019;49.382;11.358;2023-04-30T05:28:00;97009.41;;;10.32;81.70
68197;BME280;55019;49.382;11.358;2023-04-30T05:30:26;97005.38;;;10.29;81.19
68197;BME280;55019;49.382;11.358;2023-04-30T05:32:52;97013.31;;;10.36;80.49
68197;BME280;55019;49.382;11.358;2023-04-30T05:35:18;97021.38;;;10.33;81.64
68197;BME280;55019;49.382;11.358;2023-04-30T05:37:44;97010.31;;;10.23;80.39
68197;BME280;55019;49.382;11.358;2023-04-30T05:40:11;97009.78;;;10.37;80.46
68197;BME280;55019;49.382;11.358;2023-04-30T05:42:37;97018.00;;;10.58;80.20
68197;BME280;55019;49.382;11.358;2023-04-30T05:45:06;97016.72;;;10.62;79.95
68197;BME280;55019;49.382;11.358;2023-04-30T05:47:32;97023.00;;;10.85;79.67
68197;BME280;55019;49.382;11.358;2023-04-30T05:49:58;97014.44;;;11.18;78.48
68197;BME280;55019;49.382;11.358;2023-04-30T05:52:23;97027.75;;;11.39;75.99
68197;BME280;55019;49.382;11.358;2023-04-30T05:54:50;97017.84;;;11.26;75.99
68197;BME280;55019;49.382;11.358;2023-04-30T05:57:16;97018.94;;;11.16;74.81
68197;BME280;55019;49.382;11.358;2023-04-30T05:59:42;97021.19;;;11.11;76.27
68197;BME280;55019;49.382;11.358;2023-04-30T06:02:08;97034.03;;;10.95;76.62
68197;BME280;55019;49.382;11.358;2023-04-30T06:04:33;97018.28;;;11.14;76.33
68197;BME280;55019;49.382;11.358;2023-04-30T06:06:59;97030.00;;;10.92;77.41
68197;BME280;55019;49.382;11.358;2023-04-30T06:09:25;97018.22;;;10.98;77.54
68197;BME280;55019;49.382;11.358;2023-04-30T06:11:50;97012.19;;;11.23;76.97
68197;BME280;55019;49.382;11.358;2023-04-30T06:14:17;97015.66;;;11.47;74.55
68197;BME280;55019;49.382;11.358;2023-04-30T06:16:43;97017.69;;;11.77;73.83
68197;BME280;55019;49.382;11.358;2023-04-30T06:19:12;97022.38;;;11.97;73.67
68197;BME280;55019;49.382;11.358;2023-04-30T06:21:38;97018.34;;;11.87;71.98
68197;BME280;55019;49.382;11.358;2023-04-30T06:24:04;97025.75;;;11.66;71.35
68197;BME280;55019;49.382;11.358;2023-04-30T06:26:31;97024.13;;;11.65;71.78
68197;BME280;55019;49.382;11.358;2023-04-30T06:28:57;97023.03;;;11.83;72.22
68197;BME280;55019;49.382;11.358;2023-04-30T06:31:22;97019.59;;;11.59;71.68
68197;BME280;55019;49.382;11.358;2023-04-30T06:33:48;97007.16;;;11.70;72.05
68197;BME280;55019;49.382;11.358;2023-04-30T06:36:14;97013.00;;;11.88;72.01
68197;BME280;55019;49.382;11.358;2023-04-30T06:38:40;97021.91;;;12.10;71.79
68197;BME280;55019;49.382;11.358;2023-04-30T06:41:07;97015.13;;;12.01;69.50
68197;BME280;55019;49.382;11.358;2023-04-30T06:43:33;97021.41;;;12.46;70.97
68197;BME280;55019;49.382;11.358;2023-04-30T06:45:59;97010.88;;;12.64;69.20
68197;BME280;55019;49.382;11.358;2023-04-30T06:48:24;97014.41;;;12.71;68.88
68197;BME280;55019;49.382;11.358;2023-04-30T06:50:50;97016.22;;;12.62;67.96
68197;BME280;55019;49.382;11.358;2023-04-30T06:53:16;97011.34;;;12.75;68.83
68197;BME280;55019;49.382;11.358;2023-04-30T06:55:43;97015.84;;;12.81;69.01
68197;BME280;55019;49.382;11.358;2023-04-30T06:58:08;97019.47;;;13.18;66.40
68197;BME280;55019;49.382;11.358;2023-04-30T07:00:34;97019.06;;;13.45;65.53
68197;BME280;55019;49.382;11.358;2023-04-30T07:03:00;97018.66;;;13.56;66.75
68197;BME280;55019;49.382;11.358;2023-04-30T07:05:28;97019.63;;;13.86;64.53
68197;BME280;55019;49.382;11.358;2023-04-30T07:07:54;97022.44;;;13.99;62.50
68197;BME280;55019;49.382;11.358;2023-04-30T07:10:20;97021.59;;;14.06;63.02
68197;BME280;55019;49.382;11.358;2023-04-30T07:12:45;97018.94;;;13.92;62.90
68197;BME280;55019;49.382;11.358;2023-04-30T07:15:11;97019.50;;;14.32;62.90
68197;BME280;55019;49.382;11.358;2023-04-30T07:17:37;97020.34;;;14.25;60.20
68197;BME280;55019;49.382;11.358;2023-04-30T07:20:03;97028.88;;;14.55;60.76
68197;BME280;55019;49.382;11.358;2023-04-30T07:22:30;97025.75;;;14.74;58.62
68197;BME280;55019;49.382;11.358;2023-04-30T07:24:56;97023.75;;;14.62;58.25
68197;BME280;55019;49.382;11.358;2023-04-30T07:27:22;97026.50;;;14.83;57.66
68197;BME280;55019;49.382;11.358;2023-04-30T07:29:48;97032.66;;;14.67;58.00
68197;BME280;55019;49.382;11.358;2023-04-30T07:32:14;97027.38;;;15.04;56.43
68197;BME280;55019;49.382;11.358;2023-04-30T07:34:41;97026.13;;;15.15;56.12
68197;BME280;55019;49.382;11.358;2023-04-30T07:37:07;97032.69;;;15.40;55.70
68197;BME280;55019;49.382;11.358;2023-04-30T07:39:33;97023.78;;;16.05;55.71
68197;BME280;55019;49.382;11.358;2023-04-30T07:41:59;97021.19;;;16.26;53.74
68197;BME280;55019;49.382;11.358;2023-04-30T07:44:27;97021.34;;;16.39;53.37
68197;BME280;55019;49.382;11.358;2023-04-30T07:46:53;97020.31;;;16.33;53.36
68197;BME280;55019;49.382;11.358;2023-04-30T07:49:18;97020.09;;;16.35;51.84
68197;BME280;55019;49.382;11.358;2023-04-30T07:51:44;97022.50;;;16.85;52.13
68197;BME280;55019;49.382;11.358;2023-04-30T07:54:10;97023.44;;;16.29;51.59
68197;BME280;55019;49.382;11.358;2023-04-30T07:56:36;97026.91;;;16.57;51.49
68197;BME280;55019;49.382;11.358;2023-04-30T07:59:01;97023.03;;;16.74;50.44
68197;BME280;55019;49.382;11.358;2023-04-30T08:01:27;97030.00;;;16.94;51.21
68197;BME280;55019;49.382;11.358;2023-04-30T08:03:53;97025.88;;;17.46;48.80
68197;BME280;55019;49.382;11.358;2023-04-30T08:06:19;97026.81;;;17.33;47.94
68197;BME280;55019;49.382;11.358;2023-04-30T08:08:44;97024.34;;;17.65;47.39
68197;BME280;55019;49.382;11.358;2023-04-30T08:11:10;97033.91;;;17.98;49.28
68197;BME280;55019;49.382;11.358;2023-04-30T08:13:37;97037.31;;;17.92;46.55
68197;BME280;55019;49.382;11.358;2023-04-30T08:16:02;97031.16;;;16.92;47.33
68197;BME280;55019;49.382;11.358;2023-04-30T08:18:28;97038.34;;;16.83;48.66
68197;BME280;55019;49.382;11.358;2023-04-30T08:20:54;97031.09;;;16.79;47.40
68197;BME280;55019;49.382;11.358;2023-04-30T08:23:20;97032.63;;;16.67;47.44
68197;BME280;55019;49.382;11.358;2023-04-30T08:25:46;97033.63;;;16.24;49.92
68197;BME280;55019;49.382;11.358;2023-04-30T08:28:11;97031.88;;;16.31;49.00
68197;BME280;55019;49.382;11.358;2023-04-30T08:30:38;97027.22;;;17.02;52.41
68197;BME280;55019;49.382;11.358;2023-04-30T08:33:03;97027.53;;;17.54;48.31
68197;BME280;55019;49.382;11.358;2023-04-30T08:35:29;97030.25;;;17.86;47.72
68197;BME280;55019;49.382;11.358;2023-04-30T08:37:55;97024.47;;;18.10;46.45
68197;BME280;55019;49.382;11.358;2023-04-30T08:40:20;97027.72;;;18.25;45.60
68197;BME280;55019;49.382;11.358;2023-04-30T08:43:06;97027.34;;;18.41;46.28
68197;BME280;55019;49.382;11.358;2023-04-30T08:45:33;97019.88;;;19.03;45.43
68197;BME280;55019;49.382;11.358;2023-04-30T08:48:00;97015.25;;;18.98;45.38
68197;BME280;55019;49.382;11.358;2023-04-30T08:50:27;97014.47;;;19.68;44.97
68197;BME280;55019;49.382;11.358;2023-04-30T08:52:53;97017.22;;;19.29;43.25
68197;BME280;55019;49.382;11.358;2023-04-30T08:55:19;97016.91;;;18.80;42.21
68197;BME280;55019;49.382;11.358;2023-04-30T08:57:44;97022.28;;;19.24;42.25
68197;BME280;55019;49.382;11.358;2023-04-30T09:00:10;97018.97;;;19.48;40.24
68197;BME280;55019;49.382;11.358;2023-04-30T09:02:40;97014.91;;;19.96;38.38
68197;BME280;55019;49.382;11.358;2023-04-30T09:05:11;97016.38;;;19.85;38.09
68197;BME280;55019;49.382;11.358;2023-04-30T09:07:44;97015.66;;;18.89;38.93
68197;BME280;55019;49.382;11.358;2023-04-30T09:10:19;97018.47;;;19.00;40.22
68197;BME280;55019;49.382;11.358;2023-04-30T09:15:28;97021.78;;;20.58;35.18
68197;BME280;55019;49.382;11.358;2023-04-30T09:18:14;97026.44;;;20.81;37.58
68197;BME280;55019;49.382;11.358;2023-04-30T09:20:59;97014.66;;;20.41;34.71
68197;BME280;55019;49.382;11.358;2023-04-30T09:23:28;97017.09;;;18.92;36.58
68197;BME280;55019;49.382;11.358;2023-04-30T09:25:54;97026.50;;;18.21;36.00
68197;BME280;55019;49.382;11.358;2023-04-30T09:28:21;97019.31;;;18.49;37.03
68197;BME280;55019;49.382;11.358;2023-04-30T09:30:49;97015.94;;;17.69;39.09
68197;BME280;55019;49.382;11.358;2023-04-30T09:33:16;97023.47;;;17.11;39.08
68197;BME280;55019;49.382;11.358;2023-04-30T09:35:41;97020.56;;;16.66;39.51
68197;BME280;55019;49.382;11.358;2023-04-30T09:38:29;97016.97;;;16.67;41.56
68197;BME280;55019;49.382;11.358;2023-04-30T09:40:57;97024.31;;;17.58;39.68
68197;BME280;55019;49.382;11.358;2023-04-30T09:43:23;97018.72;;;18.47;38.52
68197;BME280;55019;49.382;11.358;2023-04-30T09:45:49;97018.91;;;18.72;37.52
68197;BME280;55019;49.382;11.358;2023-04-30T09:48:26;97018.69;;;19.69;38.90
68197;BME280;55019;49.382;11.358;2023-04-30T09:50:52;97011.38;;;20.94;35.87
68197;BME280;55019;49.382;11.358;2023-04-30T09:53:18;97015.19;;;21.16;35.28
68197;BME280;55019;49.382;11.358;2023-04-30T09:55:49;97007.63;;;21.26;32.71
68197;BME280;55019;49.382;11.358;2023-04-30T09:58:17;97018.78;;;20.31;34.12
68197;BME280;55019;49.382;11.358;2023-04-30T10:00:44;97008.00;;;20.08;35.45
68197;BME280;55019;49.382;11.358;2023-04-30T10:03:12;97018.63;;;19.12;37.46
68197;BME280;55019;49.382;11.358;2023-04-30T10:05:43;97015.44;;;19.16;38.38
68197;BME280;55019;49.382;11.358;2023-04-30T10:08:26;97012.47;;;18.55;38.33
68197;BME280;55019;49.382;11.358;2023-04-30T10:11:01;97007.63;;;18.65;39.21
68197;BME280;55019;49.382;11.358;2023-04-30T10:13:31;97005.75;;;19.23;37.08
68197;BME280;55019;49.382;11.358;2023-04-30T10:16:00;96987.59;;;20.65;34.64
68197;BME280;55019;49.382;11.358;2023-04-30T10:18:33;96996.50;;;20.40;34.60
68197;BME280;55019;49.382;11.358;2023-04-30T10:21:02;96999.25;;;19.39;35.47
68197;BME280;55019;49.382;11.358;2023-04-30T10:23:36;96990.06;;;20.36;35.91
68197;BME280;55019;49.382;11.358;2023-04-30T10:26:03;96981.81;;;20.56;35.92
68197;BME280;55019;49.382;11.358;2023-04-30T10:28:31;96981.34;;;19.73;37.09
68197;BME280;55019;49.382;11.358;2023-04-30T10:30:57;96977.44;;;19.45;38.06
68197;BME280;55019;49.382;11.358;2023-04-30T10:36:42;96966.97;;;18.62;39.45
68197;BME280;55019;49.382;11.358;2023-04-30T10:39:16;96970.59;;;18.74;38.87
68197;BME280;55019;49.382;11.358;2023-04-30T10:41:44;96969.50;;;19.01;40.28
68197;BME280;55019;49.382;11.358;2023-04-30T10:44:11;96966.47;;;19.10;37.05
68197;BME280;55019;49.382;11.358;2023-04-30T10:46:37;96959.84;;;19.01;39.25
68197;BME280;55019;49.382;11.358;2023-04-30T10:49:03;96967.81;;;20.38;37.81
68197;BME280;55019;49.382;11.358;2023-04-30T10:51:46;96968.59;;;21.59;33.65
68197;BME280;55019;49.382;11.358;2023-04-30T10:54:14;96966.63;;;21.73;33.51
68197;BME280;55019;49.382;11.358;2023-04-30T10:56:44;96964.56;;;21.27;33.40
68197;BME280;55019;49.382;11.358;2023-04-30T10:59:10;96972.56;;;21.50;32.78
68197;BME280;55019;49.382;11.358;2023-04-30T11:01:56;96961.91;;;21.45;31.87
68197;BME280;55019;49.382;11.358;2023-04-30T11:04:22;96963.44;;;20.56;34.75
68197;BME280;55019;49.382;11.358;2023-04-30T11:09:15;96955.19;;;20.04;34.90
68197;BME280;55019;49.382;11.358;2023-04-30T11:11:43;96952.38;;;19.99;34.93
68197;BME280;55019;49.382;11.358;2023-04-30T11:14:10;96954.00;;;20.00;33.17
68197;BME280;55019;49.382;11.358;2023-04-30T11:16:36;96952.47;;;19.80;34.87
68197;BME280;55019;49.382;11.358;2023-04-30T11:19:09;96952.22;;;19.88;35.91
68197;BME280;55019;49.382;11.358;2023-04-30T11:27:25;96948.00;;;19.87;34.05
68197;BME280;55019;49.382;11.358;2023-04-30T11:29:52;96944.28;;;19.26;35.13
68197;BME280;55019;49.382;11.358;2023-04-30T11:32:23;96938.50;;;18.98;36.37
68197;BME280;55019;49.382;11.358;2023-04-30T11:34:49;96938.38;;;19.37;36.66
68197;BME280;55019;49.382;11.358;2023-04-30T11:37:19;96937.91;;;18.96;37.06
68197;BME280;55019;49.382;11.358;2023-04-30T11:39:46;96929.41;;;19.20;36.13
68197;BME280;55019;49.382;11.358;2023-04-30T11:42:16;96935.06;;;19.17;36.48
68197;BME280;55019;49.382;11.358;2023-04-30T11:44:43;96926.13;;;18.55;36.89
68197;BME280;55019;49.382;11.358;2023-04-30T11:47:11;96938.41;;;18.15;38.15
68197;BME280;55019;49.382;11.358;2023-04-30T11:49:37;96933.53;;;18.77;37.71
68197;BME280;55019;49.382;11.358;2023-04-30T11:52:03;96934.56;;;18.50;36.65
68197;BME280;55019;49.382;11.358;2023-04-30T11:54:32;96924.69;;;18.20;37.21
68197;BME280;55019;49.382;11.358;2023-04-30T11:56:59;96931.94;;;18.11;37.67
68197;BME280;55019;49.382;11.358;2023-04-30T11:59:29;96924.28;;;17.90;39.81
68197;BME280;55019;49.382;11.358;2023-04-30T12:01:56;96920.25;;;17.81;39.87
68197;BME280;55019;49.382;11.358;2023-04-30T12:04:22;96926.31;;;18.01;38.32
68197;BME280;55019;49.382;11.358;2023-04-30T12:06:48;96911.81;;;18.64;39.00
68197;BME280;55019;49.382;11.358;2023-04-30T12:09:14;96909.31;;;18.88;37.62
68197;BME280;55019;49.382;11.358;2023-04-30T12:11:40;96916.19;;;18.89;37.17
68197;BME280;55019;49.382;11.358;2023-04-30T12:14:08;96920.53;;;19.21;37.41
68197;BME280;55019;49.382;11.358;2023-04-30T12:16:47;96911.53;;;20.34;37.65
68197;BME280;55019;49.382;11.358;2023-04-30T12:19:16;96915.59;;;20.97;37.31
68197;BME280;55019;49.382;11.358;2023-04-30T12:21:43;96909.53;;;20.96;33.53
68197;BME280;55019;49.382;11.358;2023-04-30T12:24:15;96905.31;;;21.43;32.52
68197;BME280;55019;49.382;11.358;2023-04-30T12:26:42;96913.47;;;21.23;33.09
68197;BME280;55019;49.382;11.358;2023-04-30T12:29:17;96918.06;;;20.01;36.28
68197;BME280;55019;49.382;11.358;2023-04-30T12:31:44;96911.06;;;20.86;34.47
68197;BME280;55019;49.382;11.358;2023-04-30T12:34:13;96922.56;;;20.42;34.01
68197;BME280;55019;49.382;11.358;2023-04-30T12:36:40;96911.09;;;20.13;35.23
68197;BME280;55019;49.382;11.358;2023-04-30T12:39:12;96904.31;;;21.26;34.79
68197;BME280;55019;49.382;11.358;2023-04-30T12:41:44;96903.41;;;22.20;36.60
68197;BME280;55019;49.382;11.358;2023-04-30T12:44:17;96898.06;;;22.38;31.26
68197;BME280;55019;49.382;11.358;2023-04-30T12:46:43;96901.19;;;21.17;32.32
68197;BME280;55019;49.382;11.358;2023-04-30T12:49:11;96906.25;;;20.58;33.56
68197;BME280;55019;49.382;11.358;2023-04-30T12:51:38;96889.22;;;20.01;33.62
68197;BME280;55019;49.382;11.358;2023-04-30T12:54:06;96899.56;;;19.89;33.86
68197;BME280;55019;49.382;11.358;2023-04-30T12:56:32;96901.59;;;19.12;36.35
68197;BME280;55019;49.382;11.358;2023-04-30T12:58:58;96889.63;;;19.29;35.28
68197;BME280;55019;49.382;11.358;2023-04-30T13:01:24;96890.72;;;19.22;35.85
68197;BME280;55019;49.382;11.358;2023-04-30T13:03:53;96891.72;;;19.58;36.77
68197;BME280;55019;49.382;11.358;2023-04-30T13:06:20;96888.25;;;20.80;36.86
68197;BME280;55019;49.382;11.358;2023-04-30T13:08:46;96890.06;;;21.04;33.93
68197;BME280;55019;49.382;11.358;2023-04-30T13:11:12;96882.09;;;20.92;36.32
68197;BME280;55019;49.382;11.358;2023-04-30T13:13:38;96877.03;;;21.27;32.28
68197;BME280;55019;49.382;11.358;2023-04-30T13:16:04;96879.19;;;21.59;30.82
68197;BME280;55019;49.382;11.358;2023-04-30T13:18:31;96867.97;;;21.82;31.37